Terminal Aerodrome Forecast
Issued by NWS

Home | Current Version | Previous Version | Graphics & Text | Print | Product List | Glossary On
Versions: 1 2 3 4 5 6 7 8 9 10 11 12
000
FTUS43 KGRB 251700
TAFCWA
TAF
KCWA 251720Z 2518/2618 07011G19KT P6SM FEW120
     FM252300 06005KT P6SM SKC
     FM260900 01004KT P6SM SKC
     FM261600 02008G14KT P6SM SKC=

USA.gov is the U.S. government's official web portal to all federal, state and local government web resources and services.